sensor_id;sensor_type;location;lat;lon;timestamp;temperature;humidity
40756;DHT22;26461;45.630;9.418;2023-04-03T00:02:11;13.30;89.90
40756;DHT22;26461;45.630;9.418;2023-04-03T00:05:16;13.20;90.00
40756;DHT22;26461;45.630;9.418;2023-04-03T00:08:22;13.30;90.10
40756;DHT22;26461;45.630;9.418;2023-04-03T00:11:28;13.40;90.30
40756;DHT22;26461;45.630;9.418;2023-04-03T00:14:33;13.20;90.30
40756;DHT22;26461;45.630;9.418;2023-04-03T00:17:38;13.20;90.30
40756;DHT22;26461;45.630;9.418;2023-04-03T00:20:47;13.20;90.30
40756;DHT22;26461;45.630;9.418;2023-04-03T00:23:52;13.20;90.50
40756;DHT22;26461;45.630;9.418;2023-04-03T00:26:57;13.20;90.40
40756;DHT22;26461;45.630;9.418;2023-04-03T00:30:04;13.20;90.50
40756;DHT22;26461;45.630;9.418;2023-04-03T00:33:14;13.10;90.60
40756;DHT22;26461;45.630;9.418;2023-04-03T00:36:19;13.20;90.50
40756;DHT22;26461;45.630;9.418;2023-04-03T00:39:24;13.10;90.60
40756;DHT22;26461;45.630;9.418;2023-04-03T00:43:00;13.00;90.60
40756;DHT22;26461;45.630;9.418;2023-04-03T00:46:10;12.90;90.80
40756;DHT22;26461;45.630;9.418;2023-04-03T00:49:16;12.90;90.80
40756;DHT22;26461;45.630;9.418;2023-04-03T00:52:23;12.90;90.90
40756;DHT22;26461;45.630;9.418;2023-04-03T00:55:30;12.90;91.00
40756;DHT22;26461;45.630;9.418;2023-04-03T00:58:48;12.90;90.90
40756;DHT22;26461;45.630;9.418;2023-04-03T01:01:56;12.90;90.90
40756;DHT22;26461;45.630;9.418;2023-04-03T01:05:01;12.90;90.90
40756;DHT22;26461;45.630;9.418;2023-04-03T01:08:06;12.90;90.90
40756;DHT22;26461;45.630;9.418;2023-04-03T01:11:14;12.90;90.90
40756;DHT22;26461;45.630;9.418;2023-04-03T01:14:20;12.80;91.10
40756;DHT22;26461;45.630;9.418;2023-04-03T01:17:30;12.80;91.10
40756;DHT22;26461;45.630;9.418;2023-04-03T01:27:26;12.70;91.30
40756;DHT22;26461;45.630;9.418;2023-04-03T01:30:34;12.70;91.40
40756;DHT22;26461;45.630;9.418;2023-04-03T01:33:46;12.70;91.40
40756;DHT22;26461;45.630;9.418;2023-04-03T01:36:52;12.80;91.40
40756;DHT22;26461;45.630;9.418;2023-04-03T01:39:58;12.70;91.30
40756;DHT22;26461;45.630;9.418;2023-04-03T01:43:33;13.30;91.50
40756;DHT22;26461;45.630;9.418;2023-04-03T01:46:38;12.70;91.40
40756;DHT22;26461;45.630;9.418;2023-04-03T01:49:43;12.80;91.30
40756;DHT22;26461;45.630;9.418;2023-04-03T01:52:49;12.70;91.20
40756;DHT22;26461;45.630;9.418;2023-04-03T01:55:54;12.80;91.10
40756;DHT22;26461;45.630;9.418;2023-04-03T01:58:59;12.60;91.00
40756;DHT22;26461;45.630;9.418;2023-04-03T02:02:05;12.70;91.00
40756;DHT22;26461;45.630;9.418;2023-04-03T02:05:10;12.60;90.90
40756;DHT22;26461;45.630;9.418;2023-04-03T02:08:15;12.80;91.00
40756;DHT22;26461;45.630;9.418;2023-04-03T02:11:24;12.70;91.00
40756;DHT22;26461;45.630;9.418;2023-04-03T02:14:30;12.60;90.80
40756;DHT22;26461;45.630;9.418;2023-04-03T02:17:35;12.60;90.70
40756;DHT22;26461;45.630;9.418;2023-04-03T02:20:40;12.60;90.70
40756;DHT22;26461;45.630;9.418;2023-04-03T02:23:45;12.60;90.70
40756;DHT22;26461;45.630;9.418;2023-04-03T02:26:50;12.50;90.60
40756;DHT22;26461;45.630;9.418;2023-04-03T02:30:24;13.00;90.60
40756;DHT22;26461;45.630;9.418;2023-04-03T02:33:34;12.50;90.60
40756;DHT22;26461;45.630;9.418;2023-04-03T02:36:44;12.90;90.70
40756;DHT22;26461;45.630;9.418;2023-04-03T02:39:53;12.50;90.40
40756;DHT22;26461;45.630;9.418;2023-04-03T02:43:01;12.60;90.20
40756;DHT22;26461;45.630;9.418;2023-04-03T02:46:06;12.50;90.10
40756;DHT22;26461;45.630;9.418;2023-04-03T02:49:11;12.40;90.00
40756;DHT22;26461;45.630;9.418;2023-04-03T02:52:16;12.30;90.00
40756;DHT22;26461;45.630;9.418;2023-04-03T02:55:21;12.30;89.80
40756;DHT22;26461;45.630;9.418;2023-04-03T02:58:56;12.30;89.50
40756;DHT22;26461;45.630;9.418;2023-04-03T03:02:07;12.30;89.30
40756;DHT22;26461;45.630;9.418;2023-04-03T03:05:13;12.20;89.00
40756;DHT22;26461;45.630;9.418;2023-04-03T03:08:18;11.80;88.70
40756;DHT22;26461;45.630;9.418;2023-04-03T03:11:25;12.30;89.00
40756;DHT22;26461;45.630;9.418;2023-04-03T03:14:31;12.20;88.70
40756;DHT22;26461;45.630;9.418;2023-04-03T03:17:36;12.20;88.50
40756;DHT22;26461;45.630;9.418;2023-04-03T03:20:41;12.10;88.10
40756;DHT22;26461;45.630;9.418;2023-04-03T03:23:46;12.20;87.80
40756;DHT22;26461;45.630;9.418;2023-04-03T03:26:51;12.20;87.50
40756;DHT22;26461;45.630;9.418;2023-04-03T03:29:57;12.10;87.10
40756;DHT22;26461;45.630;9.418;2023-04-03T03:33:02;12.20;86.70
40756;DHT22;26461;45.630;9.418;2023-04-03T03:36:08;12.10;86.40
40756;DHT22;26461;45.630;9.418;2023-04-03T03:39:14;12.10;86.50
40756;DHT22;26461;45.630;9.418;2023-04-03T03:42:19;12.30;86.30
40756;DHT22;26461;45.630;9.418;2023-04-03T03:45:24;12.20;86.10
40756;DHT22;26461;45.630;9.418;2023-04-03T03:48:34;12.20;85.60
40756;DHT22;26461;45.630;9.418;2023-04-03T03:51:40;12.20;85.00
40756;DHT22;26461;45.630;9.418;2023-04-03T03:54:45;12.20;84.20
40756;DHT22;26461;45.630;9.418;2023-04-03T03:58:16;12.30;83.90
40756;DHT22;26461;45.630;9.418;2023-04-03T04:01:23;12.20;83.50
40756;DHT22;26461;45.630;9.418;2023-04-03T04:04:29;12.20;83.70
40756;DHT22;26461;45.630;9.418;2023-04-03T04:07:34;12.20;83.50
40756;DHT22;26461;45.630;9.418;2023-04-03T04:10:41;12.20;83.20
40756;DHT22;26461;45.630;9.418;2023-04-03T04:13:48;12.30;82.80
40756;DHT22;26461;45.630;9.418;2023-04-03T04:16:55;12.20;82.40
40756;DHT22;26461;45.630;9.418;2023-04-03T04:20:03;12.20;81.90
40756;DHT22;26461;45.630;9.418;2023-04-03T04:23:10;12.20;81.60
40756;DHT22;26461;45.630;9.418;2023-04-03T04:26:15;12.20;81.10
40756;DHT22;26461;45.630;9.418;2023-04-03T04:29:26;12.20;80.80
40756;DHT22;26461;45.630;9.418;2023-04-03T04:32:32;12.20;81.30
40756;DHT22;26461;45.630;9.418;2023-04-03T04:35:42;12.20;81.30
40756;DHT22;26461;45.630;9.418;2023-04-03T04:38:49;12.10;81.00
40756;DHT22;26461;45.630;9.418;2023-04-03T04:41:59;12.10;80.40
40756;DHT22;26461;45.630;9.418;2023-04-03T04:45:07;12.20;79.90
40756;DHT22;26461;45.630;9.418;2023-04-03T04:48:40;12.10;79.50
40756;DHT22;26461;45.630;9.418;2023-04-03T04:51:51;12.20;78.80
40756;DHT22;26461;45.630;9.418;2023-04-03T04:55:04;12.20;78.30
40756;DHT22;26461;45.630;9.418;2023-04-03T04:58:14;12.20;78.70
40756;DHT22;26461;45.630;9.418;2023-04-03T05:01:21;12.30;78.80
40756;DHT22;26461;45.630;9.418;2023-04-03T05:04:44;12.20;78.80
40756;DHT22;26461;45.630;9.418;2023-04-03T05:07:56;12.30;79.20
40756;DHT22;26461;45.630;9.418;2023-04-03T05:11:00;12.20;79.30
40756;DHT22;26461;45.630;9.418;2023-04-03T05:14:07;12.80;80.20
40756;DHT22;26461;45.630;9.418;2023-04-03T05:17:13;12.10;80.30
40756;DHT22;26461;45.630;9.418;2023-04-03T05:20:23;12.20;80.10
40756;DHT22;26461;45.630;9.418;2023-04-03T05:23:28;12.20;80.00
40756;DHT22;26461;45.630;9.418;2023-04-03T05:26:38;12.20;80.60
40756;DHT22;26461;45.630;9.418;2023-04-03T05:29:44;12.50;80.70
40756;DHT22;26461;45.630;9.418;2023-04-03T05:32:55;12.20;81.50
40756;DHT22;26461;45.630;9.418;2023-04-03T05:36:15;12.30;82.10
40756;DHT22;26461;45.630;9.418;2023-04-03T05:39:23;12.10;83.80
40756;DHT22;26461;45.630;9.418;2023-04-03T05:42:29;12.00;84.70
40756;DHT22;26461;45.630;9.418;2023-04-03T05:45:35;11.90;84.80
40756;DHT22;26461;45.630;9.418;2023-04-03T05:48:42;11.80;86.60
40756;DHT22;26461;45.630;9.418;2023-04-03T05:51:51;11.60;87.80
40756;DHT22;26461;45.630;9.418;2023-04-03T05:55:01;11.90;88.30
40756;DHT22;26461;45.630;9.418;2023-04-03T05:58:11;11.50;88.60
40756;DHT22;26461;45.630;9.418;2023-04-03T06:01:22;11.60;88.40
40756;DHT22;26461;45.630;9.418;2023-04-03T06:04:28;12.60;89.50
40756;DHT22;26461;45.630;9.418;2023-04-03T06:07:33;11.50;88.80
40756;DHT22;26461;45.630;9.418;2023-04-03T06:10:43;11.40;89.00
40756;DHT22;26461;45.630;9.418;2023-04-03T06:13:48;12.30;89.50
40756;DHT22;26461;45.630;9.418;2023-04-03T06:16:55;11.50;90.10
40756;DHT22;26461;45.630;9.418;2023-04-03T06:20:00;11.40;90.20
40756;DHT22;26461;45.630;9.418;2023-04-03T06:23:05;11.80;90.40
40756;DHT22;26461;45.630;9.418;2023-04-03T06:26:36;11.70;90.40
40756;DHT22;26461;45.630;9.418;2023-04-03T06:29:41;11.80;90.40
40756;DHT22;26461;45.630;9.418;2023-04-03T06:32:46;11.90;90.20
40756;DHT22;26461;45.630;9.418;2023-04-03T06:35:59;12.00;90.30
40756;DHT22;26461;45.630;9.418;2023-04-03T06:39:04;12.20;90.40
40756;DHT22;26461;45.630;9.418;2023-04-03T06:42:09;12.20;90.40
40756;DHT22;26461;45.630;9.418;2023-04-03T06:45:24;12.30;90.30
40756;DHT22;26461;45.630;9.418;2023-04-03T06:48:35;12.40;90.20
40756;DHT22;26461;45.630;9.418;2023-04-03T06:51:40;12.50;89.90
40756;DHT22;26461;45.630;9.418;2023-04-03T06:54:46;12.60;89.90
40756;DHT22;26461;45.630;9.418;2023-04-03T06:57:52;12.60;89.50
40756;DHT22;26461;45.630;9.418;2023-04-03T07:00:57;12.70;89.80
40756;DHT22;26461;45.630;9.418;2023-04-03T07:04:10;12.80;89.70
40756;DHT22;26461;45.630;9.418;2023-04-03T07:07:15;12.90;90.30
40756;DHT22;26461;45.630;9.418;2023-04-03T07:10:23;12.90;90.00
40756;DHT22;26461;45.630;9.418;2023-04-03T07:13:39;13.00;89.60
40756;DHT22;26461;45.630;9.418;2023-04-03T07:16:45;13.00;89.40
40756;DHT22;26461;45.630;9.418;2023-04-03T07:19:55;13.10;89.60
40756;DHT22;26461;45.630;9.418;2023-04-03T07:23:09;13.20;89.80
40756;DHT22;26461;45.630;9.418;2023-04-03T07:26:15;13.20;89.90
40756;DHT22;26461;45.630;9.418;2023-04-03T07:29:25;13.30;90.00
40756;DHT22;26461;45.630;9.418;2023-04-03T07:32:35;13.30;89.30
40756;DHT22;26461;45.630;9.418;2023-04-03T07:35:50;13.30;89.70
40756;DHT22;26461;45.630;9.418;2023-04-03T07:38:57;13.40;89.70
40756;DHT22;26461;45.630;9.418;2023-04-03T07:46:31;13.50;88.90
40756;DHT22;26461;45.630;9.418;2023-04-03T07:49:36;13.50;88.70
40756;DHT22;26461;45.630;9.418;2023-04-03T07:52:49;13.50;88.80
40756;DHT22;26461;45.630;9.418;2023-04-03T07:56:00;13.60;89.60
40756;DHT22;26461;45.630;9.418;2023-04-03T07:59:09;13.60;89.30
40756;DHT22;26461;45.630;9.418;2023-04-03T08:02:19;13.60;89.10
40756;DHT22;26461;45.630;9.418;2023-04-03T08:10:43;13.70;89.70
40756;DHT22;26461;45.630;9.418;2023-04-03T08:13:48;13.80;89.50
40756;DHT22;26461;45.630;9.418;2023-04-03T08:16:59;13.80;89.40
40756;DHT22;26461;45.630;9.418;2023-04-03T08:20:06;13.80;90.20
40756;DHT22;26461;45.630;9.418;2023-04-03T08:23:16;13.80;90.20
40756;DHT22;26461;45.630;9.418;2023-04-03T08:26:21;13.80;90.20
40756;DHT22;26461;45.630;9.418;2023-04-03T08:30:04;13.90;90.20
40756;DHT22;26461;45.630;9.418;2023-04-03T08:33:17;13.90;90.80
40756;DHT22;26461;45.630;9.418;2023-04-03T08:36:28;14.00;90.80
40756;DHT22;26461;45.630;9.418;2023-04-03T08:39:39;14.00;91.30
40756;DHT22;26461;45.630;9.418;2023-04-03T08:46:06;14.10;90.70
40756;DHT22;26461;45.630;9.418;2023-04-03T08:49:33;14.10;90.90
40756;DHT22;26461;45.630;9.418;2023-04-03T08:52:59;14.10;91.50
40756;DHT22;26461;45.630;9.418;2023-04-03T08:56:12;14.20;91.70
40756;DHT22;26461;45.630;9.418;2023-04-03T08:59:28;14.30;91.60
40756;DHT22;26461;45.630;9.418;2023-04-03T09:02:46;14.30;91.10
40756;DHT22;26461;45.630;9.418;2023-04-03T09:06:17;14.30;91.00
40756;DHT22;26461;45.630;9.418;2023-04-03T09:09:33;14.40;91.40
40756;DHT22;26461;45.630;9.418;2023-04-03T09:12:51;14.40;91.50
40756;DHT22;26461;45.630;9.418;2023-04-03T09:16:14;14.40;91.80
40756;DHT22;26461;45.630;9.418;2023-04-03T09:22:43;14.40;91.80
40756;DHT22;26461;45.630;9.418;2023-04-03T09:25:50;14.50;91.80
40756;DHT22;26461;45.630;9.418;2023-04-03T09:29:06;14.50;92.10
40756;DHT22;26461;45.630;9.418;2023-04-03T09:32:26;14.50;92.10
40756;DHT22;26461;45.630;9.418;2023-04-03T09:35:39;14.60;92.00
40756;DHT22;26461;45.630;9.418;2023-04-03T09:39:03;14.60;92.10
40756;DHT22;26461;45.630;9.418;2023-04-03T09:42:19;14.70;92.10
40756;DHT22;26461;45.630;9.418;2023-04-03T09:45:34;14.70;91.90
40756;DHT22;26461;45.630;9.418;2023-04-03T09:48:52;14.70;91.90
40756;DHT22;26461;45.630;9.418;2023-04-03T09:52:24;14.70;91.90
40756;DHT22;26461;45.630;9.418;2023-04-03T09:55:43;14.80;92.00
40756;DHT22;26461;45.630;9.418;2023-04-03T10:05:34;14.90;92.30
40756;DHT22;26461;45.630;9.418;2023-04-03T10:08:42;14.90;92.50
40756;DHT22;26461;45.630;9.418;2023-04-03T10:12:05;15.00;92.30
40756;DHT22;26461;45.630;9.418;2023-04-03T10:15:17;15.00;92.00
40756;DHT22;26461;45.630;9.418;2023-04-03T10:19:03;15.10;92.40
40756;DHT22;26461;45.630;9.418;2023-04-03T10:29:36;15.20;92.10
40756;DHT22;26461;45.630;9.418;2023-04-03T10:32:51;15.20;92.50
40756;DHT22;26461;45.630;9.418;2023-04-03T10:36:19;15.30;92.20
40756;DHT22;26461;45.630;9.418;2023-04-03T10:39:43;15.30;92.40
40756;DHT22;26461;45.630;9.418;2023-04-03T10:43:01;15.40;92.10
40756;DHT22;26461;45.630;9.418;2023-04-03T10:49:48;15.40;91.80
40756;DHT22;26461;45.630;9.418;2023-04-03T11:00:03;15.50;91.30
40756;DHT22;26461;45.630;9.418;2023-04-03T11:06:41;15.60;91.10
40756;DHT22;26461;45.630;9.418;2023-04-03T11:09:56;15.60;91.50
40756;DHT22;26461;45.630;9.418;2023-04-03T11:13:34;15.70;91.30
40756;DHT22;26461;45.630;9.418;2023-04-03T11:17:14;15.70;91.40
40756;DHT22;26461;45.630;9.418;2023-04-03T11:20:29;15.70;91.50
40756;DHT22;26461;45.630;9.418;2023-04-03T11:23:51;15.80;91.40
40756;DHT22;26461;45.630;9.418;2023-04-03T11:27:03;15.80;91.50
40756;DHT22;26461;45.630;9.418;2023-04-03T11:30:30;15.90;91.50
40756;DHT22;26461;45.630;9.418;2023-04-03T11:34:41;15.90;91.10
40756;DHT22;26461;45.630;9.418;2023-04-03T11:40:50;15.90;91.20
40756;DHT22;26461;45.630;9.418;2023-04-03T11:44:03;16.00;91.20
40756;DHT22;26461;45.630;9.418;2023-04-03T11:54:43;16.20;89.40
40756;DHT22;26461;45.630;9.418;2023-04-03T12:01:10;16.20;89.60
40756;DHT22;26461;45.630;9.418;2023-04-03T12:04:24;16.20;89.40
40756;DHT22;26461;45.630;9.418;2023-04-03T12:07:36;16.20;89.10
40756;DHT22;26461;45.630;9.418;2023-04-03T12:14:26;16.20;89.30
40756;DHT22;26461;45.630;9.418;2023-04-03T12:17:43;16.30;87.90
40756;DHT22;26461;45.630;9.418;2023-04-03T12:20:59;16.30;87.50
40756;DHT22;26461;45.630;9.418;2023-04-03T12:24:36;16.40;87.20
40756;DHT22;26461;45.630;9.418;2023-04-03T12:27:57;16.40;87.00
40756;DHT22;26461;45.630;9.418;2023-04-03T12:31:14;16.50;85.90
40756;DHT22;26461;45.630;9.418;2023-04-03T12:45:21;16.70;84.70
40756;DHT22;26461;45.630;9.418;2023-04-03T12:52:00;16.80;83.60
40756;DHT22;26461;45.630;9.418;2023-04-03T12:55:18;16.90;84.90
40756;DHT22;26461;45.630;9.418;2023-04-03T12:58:41;17.00;85.10
40756;DHT22;26461;45.630;9.418;2023-04-03T13:01:55;17.10;85.00
40756;DHT22;26461;45.630;9.418;2023-04-03T13:05:13;17.10;82.90
40756;DHT22;26461;45.630;9.418;2023-04-03T13:08:23;17.20;82.60
40756;DHT22;26461;45.630;9.418;2023-04-03T13:11:41;17.30;82.80
40756;DHT22;26461;45.630;9.418;2023-04-03T13:14:59;17.40;82.20
40756;DHT22;26461;45.630;9.418;2023-04-03T13:18:33;17.40;82.20
40756;DHT22;26461;45.630;9.418;2023-04-03T13:21:51;17.50;82.60
40756;DHT22;26461;45.630;9.418;2023-04-03T13:25:05;17.60;81.30
40756;DHT22;26461;45.630;9.418;2023-04-03T13:28:28;17.60;80.70
40756;DHT22;26461;45.630;9.418;2023-04-03T13:31:44;17.60;80.50
40756;DHT22;26461;45.630;9.418;2023-04-03T13:35:23;17.60;80.70
40756;DHT22;26461;45.630;9.418;2023-04-03T13:38:38;17.70;79.30
40756;DHT22;26461;45.630;9.418;2023-04-03T13:42:26;17.80;79.10
40756;DHT22;26461;45.630;9.418;2023-04-03T13:49:42;18.00;80.60
40756;DHT22;26461;45.630;9.418;2023-04-03T13:53:15;18.10;80.50
40756;DHT22;26461;45.630;9.418;2023-04-03T13:59:50;18.20;79.60
40756;DHT22;26461;45.630;9.418;2023-04-03T14:02:56;18.30;78.80
40756;DHT22;26461;45.630;9.418;2023-04-03T14:06:05;18.20;78.20
40756;DHT22;26461;45.630;9.418;2023-04-03T14:09:21;18.20;77.90
40756;DHT22;26461;45.630;9.418;2023-04-03T14:12:37;18.20;79.80
40756;DHT22;26461;45.630;9.418;2023-04-03T14:15:49;18.40;78.70
40756;DHT22;26461;45.630;9.418;2023-04-03T14:19:03;18.50;80.00
40756;DHT22;26461;45.630;9.418;2023-04-03T14:22:32;18.60;79.20
40756;DHT22;26461;45.630;9.418;2023-04-03T14:25:46;18.70;79.10
40756;DHT22;26461;45.630;9.418;2023-04-03T14:29:10;18.70;78.90
40756;DHT22;26461;45.630;9.418;2023-04-03T14:32:27;18.80;78.90
40756;DHT22;26461;45.630;9.418;2023-04-03T14:35:40;18.90;78.70
40756;DHT22;26461;45.630;9.418;2023-04-03T14:38:57;19.00;78.20
40756;DHT22;26461;45.630;9.418;2023-04-03T14:42:20;19.10;77.40
40756;DHT22;26461;45.630;9.418;2023-04-03T14:45:39;19.10;75.90
40756;DHT22;26461;45.630;9.418;2023-04-03T14:48:45;19.20;74.10
40756;DHT22;26461;45.630;9.418;2023-04-03T14:52:01;19.20;75.00
40756;DHT22;26461;45.630;9.418;2023-04-03T14:55:20;19.20;73.30
40756;DHT22;26461;45.630;9.418;2023-04-03T14:58:38;19.20;73.70
40756;DHT22;26461;45.630;9.418;2023-04-03T15:01:57;19.20;73.60
40756;DHT22;26461;45.630;9.418;2023-04-03T15:05:15;19.30;74.30
40756;DHT22;26461;45.630;9.418;2023-04-03T15:08:41;19.40;72.50
40756;DHT22;26461;45.630;9.418;2023-04-03T15:11:53;19.40;72.60
40756;DHT22;26461;45.630;9.418;2023-04-03T15:15:12;19.40;72.40
40756;DHT22;26461;45.630;9.418;2023-04-03T15:18:30;19.50;72.00
40756;DHT22;26461;45.630;9.418;2023-04-03T15:21:51;19.50;71.10
40756;DHT22;26461;45.630;9.418;2023-04-03T15:25:04;19.60;70.00
40756;DHT22;26461;45.630;9.418;2023-04-03T15:28:30;19.60;69.60
40756;DHT22;26461;45.630;9.418;2023-04-03T15:31:37;19.70;69.30
40756;DHT22;26461;45.630;9.418;2023-04-03T15:34:57;19.70;68.40
40756;DHT22;26461;45.630;9.418;2023-04-03T15:38:07;19.70;67.70
40756;DHT22;26461;45.630;9.418;2023-04-03T15:41:13;19.70;68.20
40756;DHT22;26461;45.630;9.418;2023-04-03T15:44:24;19.70;68.10
40756;DHT22;26461;45.630;9.418;2023-04-03T15:47:38;19.80;68.50
40756;DHT22;26461;45.630;9.418;2023-04-03T15:50:44;19.90;69.20
40756;DHT22;26461;45.630;9.418;2023-04-03T15:53:56;20.00;68.30
40756;DHT22;26461;45.630;9.418;2023-04-03T15:57:16;20.00;67.10
40756;DHT22;26461;45.630;9.418;2023-04-03T16:00:44;20.00;67.50
40756;DHT22;26461;45.630;9.418;2023-04-03T16:03:50;20.10;68.70
40756;DHT22;26461;45.630;9.418;2023-04-03T16:06:56;20.10;67.30
40756;DHT22;26461;45.630;9.418;2023-04-03T16:10:08;20.10;66.80
40756;DHT22;26461;45.630;9.418;2023-04-03T16:13:15;20.00;67.50
40756;DHT22;26461;45.630;9.418;2023-04-03T16:16:27;20.00;66.60
40756;DHT22;26461;45.630;9.418;2023-04-03T16:19:47;20.10;66.40
40756;DHT22;26461;45.630;9.418;2023-04-03T16:22:58;20.00;66.10
40756;DHT22;26461;45.630;9.418;2023-04-03T16:26:18;20.00;67.20
40756;DHT22;26461;45.630;9.418;2023-04-03T16:29:36;20.00;66.80
40756;DHT22;26461;45.630;9.418;2023-04-03T16:32:56;20.00;66.90
40756;DHT22;26461;45.630;9.418;2023-04-03T16:36:16;20.00;66.20
40756;DHT22;26461;45.630;9.418;2023-04-03T16:39:27;20.00;65.50
40756;DHT22;26461;45.630;9.418;2023-04-03T16:42:37;20.00;66.00
40756;DHT22;26461;45.630;9.418;2023-04-03T16:45:49;20.00;66.20
40756;DHT22;26461;45.630;9.418;2023-04-03T16:48:54;20.00;65.90
40756;DHT22;26461;45.630;9.418;2023-04-03T16:52:02;20.00;66.00
40756;DHT22;26461;45.630;9.418;2023-04-03T16:55:18;20.00;65.90
40756;DHT22;26461;45.630;9.418;2023-04-03T16:58:30;20.00;65.70
40756;DHT22;26461;45.630;9.418;2023-04-03T17:01:41;20.00;65.60
40756;DHT22;26461;45.630;9.418;2023-04-03T17:04:54;20.00;65.30
40756;DHT22;26461;45.630;9.418;2023-04-03T17:08:10;19.90;65.00
40756;DHT22;26461;45.630;9.418;2023-04-03T17:11:21;19.90;64.60
40756;DHT22;26461;45.630;9.418;2023-04-03T17:14:28;19.70;64.30
40756;DHT22;26461;45.630;9.418;2023-04-03T17:17:42;19.60;64.40
40756;DHT22;26461;45.630;9.418;2023-04-03T17:20:56;19.40;64.60
40756;DHT22;26461;45.630;9.418;2023-04-03T17:24:04;19.20;65.10
40756;DHT22;26461;45.630;9.418;2023-04-03T17:27:19;19.10;65.50
40756;DHT22;26461;45.630;9.418;2023-04-03T17:30:35;19.10;65.70
40756;DHT22;26461;45.630;9.418;2023-04-03T17:33:45;18.90;65.10
40756;DHT22;26461;45.630;9.418;2023-04-03T17:36:51;18.80;65.00
40756;DHT22;26461;45.630;9.418;2023-04-03T17:40:01;18.60;65.30
40756;DHT22;26461;45.630;9.418;2023-04-03T17:43:24;18.50;65.60
40756;DHT22;26461;45.630;9.418;2023-04-03T17:46:40;18.30;65.80
40756;DHT22;26461;45.630;9.418;2023-04-03T17:49:58;18.10;66.10
40756;DHT22;26461;45.630;9.418;2023-04-03T17:53:06;17.90;66.70
40756;DHT22;26461;45.630;9.418;2023-04-03T17:56:23;17.70;66.80
40756;DHT22;26461;45.630;9.418;2023-04-03T17:59:31;17.50;67.20
40756;DHT22;26461;45.630;9.418;2023-04-03T18:02:45;17.40;67.40
40756;DHT22;26461;45.630;9.418;2023-04-03T18:05:58;17.20;67.80
40756;DHT22;26461;45.630;9.418;2023-04-03T18:09:24;17.10;68.20
40756;DHT22;26461;45.630;9.418;2023-04-03T18:12:45;17.00;68.60
40756;DHT22;26461;45.630;9.418;2023-04-03T18:15:53;16.80;68.30
40756;DHT22;26461;45.630;9.418;2023-04-03T18:18:58;16.70;68.70
40756;DHT22;26461;45.630;9.418;2023-04-03T18:22:13;16.60;68.80
40756;DHT22;26461;45.630;9.418;2023-04-03T18:25:21;16.50;69.10
40756;DHT22;26461;45.630;9.418;2023-04-03T18:28:33;16.50;69.30
40756;DHT22;26461;45.630;9.418;2023-04-03T18:31:47;16.30;69.30
40756;DHT22;26461;45.630;9.418;2023-04-03T18:34:59;16.20;69.60
40756;DHT22;26461;45.630;9.418;2023-04-03T18:38:08;16.10;70.00
40756;DHT22;26461;45.630;9.418;2023-04-03T18:41:19;16.10;70.00
40756;DHT22;26461;45.630;9.418;2023-04-03T18:44:28;16.00;69.80
40756;DHT22;26461;45.630;9.418;2023-04-03T18:47:43;16.00;69.60
40756;DHT22;26461;45.630;9.418;2023-04-03T18:50:59;15.90;69.60
40756;DHT22;26461;45.630;9.418;2023-04-03T18:54:11;15.80;69.70
40756;DHT22;26461;45.630;9.418;2023-04-03T18:57:28;15.70;69.90
40756;DHT22;26461;45.630;9.418;2023-04-03T19:00:43;15.70;69.90
40756;DHT22;26461;45.630;9.418;2023-04-03T19:03:55;15.70;69.80
40756;DHT22;26461;45.630;9.418;2023-04-03T19:07:11;15.60;69.80
40756;DHT22;26461;45.630;9.418;2023-04-03T19:10:23;15.60;70.00
40756;DHT22;26461;45.630;9.418;2023-04-03T19:13:37;15.50;69.90
40756;DHT22;26461;45.630;9.418;2023-04-03T19:16:52;15.50;69.90
40756;DHT22;26461;45.630;9.418;2023-04-03T19:20:02;15.40;69.60
40756;DHT22;26461;45.630;9.418;2023-04-03T19:23:16;15.40;69.80
40756;DHT22;26461;45.630;9.418;2023-04-03T19:26:26;15.30;69.70
40756;DHT22;26461;45.630;9.418;2023-04-03T19:29:39;15.30;69.20
40756;DHT22;26461;45.630;9.418;2023-04-03T19:33:01;15.30;69.30
40756;DHT22;26461;45.630;9.418;2023-04-03T19:36:15;15.20;69.00
40756;DHT22;26461;45.630;9.418;2023-04-03T19:39:27;15.20;68.80
40756;DHT22;26461;45.630;9.418;2023-04-03T19:42:45;15.10;68.70
40756;DHT22;26461;45.630;9.418;2023-04-03T19:46:06;15.10;68.70
40756;DHT22;26461;45.630;9.418;2023-04-03T19:49:23;15.10;68.50
40756;DHT22;26461;45.630;9.418;2023-04-03T19:52:42;15.00;68.40
40756;DHT22;26461;45.630;9.418;2023-04-03T19:55:57;15.00;68.40
40756;DHT22;26461;45.630;9.418;2023-04-03T19:59:26;15.00;68.00
40756;DHT22;26461;45.630;9.418;2023-04-03T20:02:37;14.90;67.60
40756;DHT22;26461;45.630;9.418;2023-04-03T20:05:50;14.80;68.00
40756;DHT22;26461;45.630;9.418;2023-04-03T20:09:04;14.80;68.20
40756;DHT22;26461;45.630;9.418;2023-04-03T20:12:17;14.70;68.40
40756;DHT22;26461;45.630;9.418;2023-04-03T20:15:31;14.70;68.10
40756;DHT22;26461;45.630;9.418;2023-04-03T20:18:58;14.60;68.30
40756;DHT22;26461;45.630;9.418;2023-04-03T20:22:12;14.60;68.50
40756;DHT22;26461;45.630;9.418;2023-04-03T20:25:31;14.50;68.40
40756;DHT22;26461;45.630;9.418;2023-04-03T20:28:44;14.40;68.30
40756;DHT22;26461;45.630;9.418;2023-04-03T20:32:02;14.40;68.20
40756;DHT22;26461;45.630;9.418;2023-04-03T20:35:21;14.30;68.00
40756;DHT22;26461;45.630;9.418;2023-04-03T20:38:39;14.30;68.00
40756;DHT22;26461;45.630;9.418;2023-04-03T20:41:59;14.20;68.30
40756;DHT22;26461;45.630;9.418;2023-04-03T20:45:16;14.20;68.30
40756;DHT22;26461;45.630;9.418;2023-04-03T20:48:29;14.20;68.10
40756;DHT22;26461;45.630;9.418;2023-04-03T20:51:46;14.10;68.10
40756;DHT22;26461;45.630;9.418;2023-04-03T20:54:59;14.10;67.90
40756;DHT22;26461;45.630;9.418;2023-04-03T20:58:10;14.10;67.50
40756;DHT22;26461;45.630;9.418;2023-04-03T21:01:23;14.00;67.30
40756;DHT22;26461;45.630;9.418;2023-04-03T21:04:41;14.00;67.60
40756;DHT22;26461;45.630;9.418;2023-04-03T21:22:23;13.80;65.70
40756;DHT22;26461;45.630;9.418;2023-04-03T21:25:29;13.80;65.70
40756;DHT22;26461;45.630;9.418;2023-04-03T21:28:44;13.80;66.10
40756;DHT22;26461;45.630;9.418;2023-04-03T21:31:59;13.70;65.90
40756;DHT22;26461;45.630;9.418;2023-04-03T21:35:11;13.80;64.20
40756;DHT22;26461;45.630;9.418;2023-04-03T21:38:22;13.80;64.10
40756;DHT22;26461;45.630;9.418;2023-04-03T21:41:32;13.70;63.80
40756;DHT22;26461;45.630;9.418;2023-04-03T21:44:41;13.70;63.50
40756;DHT22;26461;45.630;9.418;2023-04-03T21:47:46;13.60;63.60
40756;DHT22;26461;45.630;9.418;2023-04-03T21:50:53;13.60;64.10
40756;DHT22;26461;45.630;9.418;2023-04-03T21:54:17;13.50;64.20
40756;DHT22;26461;45.630;9.418;2023-04-03T21:57:24;13.50;64.20
40756;DHT22;26461;45.630;9.418;2023-04-03T22:00:41;13.40;64.10
40756;DHT22;26461;45.630;9.418;2023-04-03T22:03:51;13.50;64.50